Time;durP1;ratioP1;P1;durP2;ratioP2;P2;SDS_P1;SDS_P2;PMS_P1;PMS_P2;Temp;Humidity;BMP_temperature;BMP_pressure;BME280_temperature;BME280_humidity;BME280_pressure;Samples;Min_cycle;Max_cycle;Signal;HPM_P1;HPM_P2
2023/12/07 00:02:04;;;;;;;62.65;22.52;;;;;;;3.37;100.00;100334.72;4947018;28;20938;-83
2023/12/07 00:04:31;;;;;;;54.47;22.73;;;;;;;3.36;100.00;100335.66;4931452;28;20442;-83
2023/12/07 00:06:58;;;;;;;56.75;25.02;;;;;;;3.35;100.00;100333.09;4950265;28;20047;-82
2023/12/07 00:09:25;;;;;;;61.03;24.27;;;;;;;3.35;100.00;100328.69;4932731;28;20046;-83
2023/12/07 00:11:52;;;;;;;48.45;20.95;;;;;;;3.34;100.00;100331.44;4947480;28;20495;-83
2023/12/07 00:14:18;;;;;;;50.95;22.08;;;;;;;3.30;100.00;100335.97;4934038;28;20105;-83
2023/12/07 00:16:45;;;;;;;48.83;19.83;;;;;;;3.33;100.00;100334.97;4946330;28;20493;-84
2023/12/07 00:19:12;;;;;;;50.80;20.85;;;;;;;3.34;100.00;100332.25;4919022;28;20054;-85
2023/12/07 00:21:39;;;;;;;46.95;20.95;;;;;;;3.35;100.00;100330.47;4921564;28;20051;-85
2023/12/07 00:24:06;;;;;;;46.17;21.08;;;;;;;3.37;100.00;100339.97;4933815;28;20061;-85
2023/12/07 00:26:33;;;;;;;57.20;23.38;;;;;;;3.37;100.00;100336.50;4947829;28;20395;-85
2023/12/07 00:29:00;;;;;;;50.58;21.15;;;;;;;3.39;100.00;100332.03;4936224;28;20049;-85
2023/12/07 00:31:27;;;;;;;54.55;22.27;;;;;;;3.38;100.00;100341.66;4939523;28;20098;-83
2023/12/07 00:33:54;;;;;;;53.15;23.20;;;;;;;3.36;100.00;100343.53;4935379;28;20082;-85
2023/12/07 00:36:21;;;;;;;53.75;21.25;;;;;;;3.37;100.00;100344.38;4958114;28;20049;-83
2023/12/07 00:38:48;;;;;;;60.78;24.35;;;;;;;3.37;100.00;100341.75;4934720;28;20074;-84
2023/12/07 00:41:15;;;;;;;56.45;22.63;;;;;;;3.39;100.00;100345.16;4951790;28;20061;-82
2023/12/07 00:43:42;;;;;;;58.38;22.25;;;;;;;3.36;100.00;100354.03;4925463;28;20050;-82
2023/12/07 00:46:09;;;;;;;54.47;21.58;;;;;;;3.32;100.00;100347.25;4954227;28;20061;-83
2023/12/07 00:48:36;;;;;;;51.85;22.55;;;;;;;3.28;100.00;100342.22;4956304;28;20690;-83
2023/12/07 00:51:03;;;;;;;62.78;22.80;;;;;;;3.32;100.00;100346.41;4936278;28;20046;-83
2023/12/07 00:53:29;;;;;;;52.30;22.27;;;;;;;3.32;100.00;100343.78;4942195;28;20046;-84
2023/12/07 00:55:56;;;;;;;52.92;23.77;;;;;;;3.31;100.00;100342.94;4949975;28;20043;-83
2023/12/07 00:58:23;;;;;;;59.08;23.38;;;;;;;3.33;100.00;100345.44;4941848;28;20043;-83
2023/12/07 01:00:51;;;;;;;58.90;21.80;;;;;;;3.33;100.00;100350.69;4953393;28;20385;-83
2023/12/07 01:03:18;;;;;;;56.42;23.10;;;;;;;3.30;100.00;100359.59;4944297;28;20042;-82
2023/12/07 01:05:45;;;;;;;50.83;22.40;;;;;;;3.32;100.00;100359.53;4951322;28;20451;-83
2023/12/07 01:08:12;;;;;;;53.25;21.65;;;;;;;3.33;100.00;100358.56;4941561;28;20042;-83
2023/12/07 01:10:39;;;;;;;46.47;21.13;;;;;;;3.30;100.00;100364.00;4936648;28;20061;-82
2023/12/07 01:13:06;;;;;;;50.50;21.77;;;;;;;3.26;100.00;100364.16;4936003;28;20086;-83
2023/12/07 01:15:33;;;;;;;47.70;21.13;;;;;;;3.30;100.00;100369.25;4927567;28;20046;-84
2023/12/07 01:18:00;;;;;;;47.65;20.33;;;;;;;3.23;100.00;100372.19;4918556;28;20047;-82
2023/12/07 01:20:27;;;;;;;45.22;20.48;;;;;;;3.26;100.00;100381.69;4927343;28;20039;-82
2023/12/07 01:22:54;;;;;;;40.28;18.70;;;;;;;3.25;100.00;100375.56;4947804;28;20071;-83
2023/12/07 01:25:21;;;;;;;53.38;21.27;;;;;;;3.24;100.00;100381.75;4936364;28;20038;-83
2023/12/07 01:27:49;;;;;;;45.25;20.27;;;;;;;3.19;100.00;100383.75;4932563;28;20043;-83
2023/12/07 01:30:16;;;;;;;50.00;20.42;;;;;;;3.15;100.00;100389.22;4918937;28;20117;-83
2023/12/07 01:32:43;;;;;;;44.95;20.75;;;;;;;3.18;100.00;100387.31;4950705;28;20420;-82
2023/12/07 01:35:10;;;;;;;42.33;19.02;;;;;;;3.16;100.00;100389.16;4958688;28;20046;-83
2023/12/07 01:37:37;;;;;;;53.85;21.42;;;;;;;3.17;100.00;100388.22;4932203;28;20063;-83
2023/12/07 01:40:09;;;;;;;113.03;22.95;;;;;;;3.12;100.00;100392.00;4922267;28;20050;-83
2023/12/07 01:42:39;;;;;;;102.30;22.55;;;;;;;3.10;100.00;100397.31;4947799;28;20047;-83
2023/12/07 01:45:07;;;;;;;42.55;20.10;;;;;;;3.12;100.00;100398.09;4934448;28;20071;-83
2023/12/07 01:47:35;;;;;;;42.25;17.67;;;;;;;3.05;100.00;100391.44;4917965;28;20442;-83
2023/12/07 01:50:04;;;;;;;35.90;15.73;;;;;;;3.03;100.00;100388.91;4949859;28;20050;-83
2023/12/07 01:52:31;;;;;;;35.40;16.63;;;;;;;3.00;100.00;100396.91;4935307;28;20403;-84
2023/12/07 01:54:58;;;;;;;33.80;15.63;;;;;;;2.98;99.32;100390.88;4949980;28;20529;-83
2023/12/07 01:57:25;;;;;;;45.78;20.48;;;;;;;3.03;99.99;100390.69;4936205;28;20047;-83
2023/12/07 01:59:51;;;;;;;42.60;17.30;;;;;;;3.02;100.00;100399.44;4962502;28;20053;-83
2023/12/07 02:02:18;;;;;;;38.53;17.58;;;;;;;3.01;100.00;100401.22;4939167;28;20043;-83
2023/12/07 02:04:45;;;;;;;37.75;16.25;;;;;;;2.90;98.63;100394.78;4933221;28;20454;-83
2023/12/07 02:07:12;;;;;;;35.92;16.00;;;;;;;2.89;98.72;100395.72;4949209;28;20039;-83
2023/12/07 02:09:39;;;;;;;32.70;15.80;;;;;;;2.91;99.42;100397.34;4919477;28;20052;-83
2023/12/07 02:12:06;;;;;;;39.83;17.25;;;;;;;2.89;100.00;100406.22;4939642;28;20098;-83
2023/12/07 02:14:34;;;;;;;51.58;18.58;;;;;;;2.96;100.00;100403.22;4948829;28;20057;-83
2023/12/07 02:17:15;;;;;;;49.15;19.45;;;;;;;2.95;100.00;100398.03;4949583;28;20122;-83
2023/12/07 02:19:55;;;;;;;51.03;18.90;;;;;;;2.90;100.00;100395.66;4932025;28;20512;-83
2023/12/07 02:22:30;;;;;;;51.05;18.45;;;;;;;2.93;100.00;100400.75;4963384;28;20053;-83
2023/12/07 02:25:04;;;;;;;60.30;19.08;;;;;;;2.88;99.93;100399.28;4966295;28;20054;-83
2023/12/07 02:27:41;;;;;;;66.00;18.85;;;;;;;2.83;99.53;100395.09;4917688;28;20457;-82
2023/12/07 02:30:10;;;;;;;45.75;17.60;;;;;;;2.88;100.00;100389.63;4937867;28;20048;-83
2023/12/07 02:32:41;;;;;;;49.03;16.75;;;;;;;2.83;99.60;100397.72;4933357;28;20126;-83
2023/12/07 02:35:08;;;;;;;41.70;18.10;;;;;;;2.88;100.00;100401.91;4932416;28;20059;-83
2023/12/07 02:37:50;;;;;;;55.22;18.90;;;;;;;2.81;100.00;100398.72;4919343;28;20051;-83
2023/12/07 02:40:21;;;;;;;45.90;17.88;;;;;;;2.86;100.00;100401.13;4947377;28;20103;-82
2023/12/07 02:42:48;;;;;;;46.10;18.70;;;;;;;2.84;100.00;100401.19;4926710;28;20062;-83
2023/12/07 02:45:15;;;;;;;51.92;17.63;;;;;;;2.83;100.00;100404.75;4951395;28;20086;-83
2023/12/07 02:47:45;;;;;;;51.47;17.83;;;;;;;2.83;100.00;100407.34;4918329;28;20051;-83
2023/12/07 02:50:12;;;;;;;54.15;19.75;;;;;;;2.76;100.00;100406.78;4924365;28;20473;-83
2023/12/07 02:52:40;;;;;;;36.90;16.70;;;;;;;2.85;100.00;100410.78;4916712;28;20135;-84
2023/12/07 02:55:07;;;;;;;37.90;16.98;;;;;;;2.86;100.00;100401.13;4933493;28;20516;-83
2023/12/07 02:57:34;;;;;;;33.72;16.80;;;;;;;2.88;100.00;100400.13;4916562;28;20126;-83
2023/12/07 03:00:06;;;;;;;39.15;16.92;;;;;;;2.90;100.00;100407.91;4930061;28;20043;-84
2023/12/07 03:02:37;;;;;;;44.20;18.48;;;;;;;2.89;100.00;100406.22;4932683;28;20121;-83
2023/12/07 03:05:04;;;;;;;32.20;16.40;;;;;;;2.89;100.00;100401.81;4921006;28;20469;-84
2023/12/07 03:07:31;;;;;;;40.40;17.55;;;;;;;2.89;100.00;100408.84;4951292;28;20387;-83
2023/12/07 03:09:58;;;;;;;44.38;18.08;;;;;;;2.88;100.00;100402.75;4932183;28;20045;-83
2023/12/07 03:12:25;;;;;;;44.20;18.60;;;;;;;2.90;100.00;100405.28;4946976;28;20495;-84
2023/12/07 03:14:52;;;;;;;45.47;18.05;;;;;;;2.87;100.00;100403.66;4951175;28;20046;-83
2023/12/07 03:17:19;;;;;;;42.30;17.00;;;;;;;2.87;100.00;100405.44;4935856;28;20486;-83
2023/12/07 03:19:45;;;;;;;35.05;17.17;;;;;;;2.91;100.00;100407.84;4933808;28;20046;-84
2023/12/07 03:22:13;;;;;;;50.78;21.30;;;;;;;2.87;100.00;100405.44;4935475;28;20136;-82
2023/12/07 03:24:45;;;;;;;39.97;18.42;;;;;;;2.90;100.00;100408.78;4916975;28;20050;-83
2023/12/07 03:27:12;;;;;;;37.63;17.15;;;;;;;2.93;100.00;100410.41;4938096;28;20490;-83
2023/12/07 03:29:39;;;;;;;33.15;16.15;;;;;;;2.93;100.00;100415.66;4922515;28;20109;-82
2023/12/07 03:32:06;;;;;;;37.40;17.33;;;;;;;2.97;100.00;100409.31;4922097;28;20039;-82
2023/12/07 03:34:33;;;;;;;36.97;17.67;;;;;;;2.92;100.00;100414.78;4934467;28;20127;-83
2023/12/07 03:36:59;;;;;;;39.05;15.85;;;;;;;2.94;100.00;100420.81;4949153;28;20806;-83
2023/12/07 03:39:26;;;;;;;38.35;17.35;;;;;;;2.96;100.00;100418.13;4924005;28;20405;-83
2023/12/07 03:41:53;;;;;;;39.60;17.08;;;;;;;2.91;100.00;100413.09;4932275;28;20046;-83
2023/12/07 03:44:20;;;;;;;40.85;17.90;;;;;;;2.89;100.00;100414.94;4950433;28;20047;-83
2023/12/07 03:46:47;;;;;;;35.10;16.80;;;;;;;2.87;100.00;100415.91;4920023;28;20141;-83
2023/12/07 03:49:15;;;;;;;34.28;16.55;;;;;;;2.90;100.00;100418.41;4915687;28;20502;-82
2023/12/07 03:51:42;;;;;;;39.60;16.63;;;;;;;2.92;100.00;100421.81;4945785;28;20093;-83
2023/12/07 03:54:08;;;;;;;43.03;18.42;;;;;;;2.94;100.00;100430.44;4939224;28;20051;-83
2023/12/07 03:56:35;;;;;;;41.60;17.50;;;;;;;2.91;100.00;100423.56;4931718;28;20608;-82
2023/12/07 03:59:02;;;;;;;36.75;15.70;;;;;;;2.92;100.00;100427.03;4910565;28;20126;-84
2023/12/07 04:01:29;;;;;;;43.88;17.63;;;;;;;2.92;100.00;100421.81;4955918;28;20105;-83
2023/12/07 04:04:00;;;;;;;47.83;19.42;;;;;;;2.89;100.00;100425.41;4951189;28;20113;-83
2023/12/07 04:06:27;;;;;;;47.55;19.95;;;;;;;2.91;100.00;100436.69;4931214;28;20710;-82
2023/12/07 04:08:54;;;;;;;53.88;21.35;;;;;;;2.94;100.00;100438.31;4952533;28;20046;-83
2023/12/07 04:11:29;;;;;;;55.17;23.52;;;;;;;2.90;100.00;100444.63;4939004;28;20226;-83
2023/12/07 04:13:59;;;;;;;50.67;18.95;;;;;;;2.94;100.00;100438.31;4952018;28;20043;-83
2023/12/07 04:16:26;;;;;;;41.30;17.33;;;;;;;2.93;100.00;100434.00;4942878;28;20070;-83
2023/12/07 04:18:53;;;;;;;41.92;17.15;;;;;;;2.92;100.00;100432.28;4956764;28;20049;-83
2023/12/07 04:21:20;;;;;;;44.22;16.45;;;;;;;2.88;100.00;100428.97;4924368;28;20494;-83
2023/12/07 04:23:47;;;;;;;41.47;18.02;;;;;;;2.88;100.00;100428.97;4952125;28;20078;-83
2023/12/07 04:26:15;;;;;;;50.72;19.35;;;;;;;2.82;100.00;100426.63;4937019;28;20074;-83
2023/12/07 04:28:42;;;;;;;46.03;18.05;;;;;;;2.87;100.00;100432.50;4924323;28;20039;-82
2023/12/07 04:31:09;;;;;;;42.30;18.40;;;;;;;2.86;100.00;100425.56;4920009;28;20110;-82
2023/12/07 04:33:36;;;;;;;40.60;18.70;;;;;;;2.91;100.00;100430.59;4949129;28;20046;-81
2023/12/07 04:36:04;;;;;;;41.95;18.63;;;;;;;2.88;100.00;100434.22;4922674;28;20053;-81
2023/12/07 04:38:32;;;;;;;44.47;18.15;;;;;;;2.91;100.00;100441.09;4920720;28;20043;-83
2023/12/07 04:40:59;;;;;;;47.10;19.92;;;;;;;2.86;100.00;100443.94;4935653;28;20055;-83
2023/12/07 04:43:25;;;;;;;49.55;18.35;;;;;;;2.88;100.00;100452.59;4926584;28;20074;-83
2023/12/07 04:45:52;;;;;;;46.08;18.98;;;;;;;2.86;100.00;100453.56;4917691;28;20047;-82
2023/12/07 04:48:19;;;;;;;43.53;17.30;;;;;;;2.88;100.00;100455.22;4935019;28;20043;-81
2023/12/07 04:50:46;;;;;;;41.47;16.40;;;;;;;2.79;100.00;100448.59;4966810;28;20051;-81
2023/12/07 04:53:13;;;;;;;37.17;15.75;;;;;;;2.84;100.00;100445.75;4934697;28;20133;-84
2023/12/07 04:55:39;;;;;;;39.78;15.75;;;;;;;2.85;100.00;100438.75;4923679;28;20050;-87
2023/12/07 04:58:06;;;;;;;43.25;16.15;;;;;;;2.82;100.00;100447.59;4935072;28;20162;-87
2023/12/07 05:00:33;;;;;;;41.65;16.05;;;;;;;2.82;100.00;100448.47;4938806;28;20101;-87
2023/12/07 05:03:00;;;;;;;42.05;16.88;;;;;;;2.82;100.00;100451.09;4950248;28;20038;-86
2023/12/07 05:05:27;;;;;;;42.45;17.58;;;;;;;2.85;100.00;100455.34;4964451;28;20045;-87
2023/12/07 05:07:54;;;;;;;46.78;17.08;;;;;;;2.88;100.00;100459.59;4952179;28;20046;-87
2023/12/07 05:10:21;;;;;;;42.67;17.38;;;;;;;2.84;100.00;100453.63;4920383;28;20445;-87
2023/12/07 05:12:48;;;;;;;47.55;17.77;;;;;;;2.88;100.00;100457.00;4950187;28;20051;-81
2023/12/07 05:15:15;;;;;;;51.92;17.80;;;;;;;2.86;100.00;100448.34;4938662;28;20066;-81
2023/12/07 05:17:41;;;;;;;47.25;18.95;;;;;;;2.86;100.00;100457.03;4940684;28;20042;-81
2023/12/07 05:20:08;;;;;;;54.97;20.45;;;;;;;2.88;100.00;100451.75;4938165;28;20395;-81
2023/12/07 05:22:35;;;;;;;52.10;19.20;;;;;;;2.85;100.00;100450.09;4949295;28;20386;-83
2023/12/07 05:25:02;;;;;;;58.72;19.85;;;;;;;2.86;100.00;100454.41;4948950;28;20050;-85
2023/12/07 05:27:29;;;;;;;56.47;20.17;;;;;;;2.88;100.00;100452.59;4964776;28;20055;-85
2023/12/07 05:29:56;;;;;;;56.65;19.98;;;;;;;2.88;100.00;100457.00;4933285;28;20043;-80
2023/12/07 05:32:22;;;;;;;67.15;20.23;;;;;;;2.87;100.00;100447.41;4934435;28;20049;-84
2023/12/07 05:34:50;;;;;;;60.42;18.98;;;;;;;2.88;100.00;100449.13;4932084;28;20458;-84
2023/12/07 05:37:17;;;;;;;62.30;20.27;;;;;;;2.87;100.00;100452.63;4950574;28;20043;-83
2023/12/07 05:39:44;;;;;;;62.58;21.35;;;;;;;2.87;100.00;100457.88;4921766;28;20097;-86
2023/12/07 05:42:11;;;;;;;50.22;20.15;;;;;;;2.88;100.00;100459.59;4933478;28;20489;-82
2023/12/07 05:44:38;;;;;;;50.40;18.45;;;;;;;2.87;100.00;100455.25;4948149;28;20138;-82
2023/12/07 05:47:05;;;;;;;58.10;20.38;;;;;;;2.88;100.00;100457.00;4961682;28;20174;-84
2023/12/07 05:49:32;;;;;;;54.03;20.05;;;;;;;2.87;100.00;100461.34;4948072;28;20058;-84
2023/12/07 05:51:59;;;;;;;53.88;19.48;;;;;;;2.89;100.00;100456.06;4943076;28;20178;-84
2023/12/07 05:54:26;;;;;;;67.68;20.35;;;;;;;2.87;100.00;100457.88;4933487;28;20073;-84
2023/12/07 05:56:52;;;;;;;51.40;18.17;;;;;;;2.86;100.00;100466.69;4934660;28;20054;-84
2023/12/07 05:59:19;;;;;;;58.10;20.25;;;;;;;2.83;100.00;100457.19;4915379;28;20046;-84
2023/12/07 06:01:46;;;;;;;52.35;18.55;;;;;;;2.86;100.00;100459.66;4931721;28;20411;-84
2023/12/07 06:04:13;;;;;;;60.47;19.75;;;;;;;2.86;100.00;100461.44;4952094;28;20576;-84
2023/12/07 06:06:40;;;;;;;55.80;19.23;;;;;;;2.87;100.00;100465.75;4921455;28;20486;-84
2023/12/07 06:09:07;;;;;;;55.65;19.77;;;;;;;2.82;100.00;100461.59;4932456;28;20888;-84
2023/12/07 06:11:35;;;;;;;62.33;19.88;;;;;;;2.87;100.00;100476.25;4933854;28;20083;-84
2023/12/07 06:14:02;;;;;;;57.45;18.77;;;;;;;2.89;100.00;100477.88;4940029;28;20390;-84
2023/12/07 06:16:29;;;;;;;55.50;19.73;;;;;;;2.89;100.00;100474.41;4935082;28;20043;-84
2023/12/07 06:18:56;;;;;;;57.05;19.05;;;;;;;2.89;100.00;100472.63;4932199;28;20410;-84
2023/12/07 06:21:25;;;;;;;60.28;20.67;;;;;;;2.92;100.00;100463.78;4918906;28;20491;-84
2023/12/07 06:23:52;;;;;;;62.90;20.65;;;;;;;2.89;100.00;100466.53;4936217;28;20490;-84
2023/12/07 06:26:19;;;;;;;62.22;20.52;;;;;;;2.91;100.00;100465.56;4936027;28;20055;-84
2023/12/07 06:28:46;;;;;;;63.72;19.70;;;;;;;2.89;100.00;100477.03;4924604;28;20051;-84
2023/12/07 06:31:15;;;;;;;61.47;21.42;;;;;;;2.89;100.00;100475.25;4948949;28;20410;-84
2023/12/07 06:33:42;;;;;;;68.93;21.75;;;;;;;2.92;100.00;100471.63;4917580;28;20134;-84
2023/12/07 06:36:09;;;;;;;66.70;20.75;;;;;;;2.97;100.00;100474.91;4953268;28;20043;-84
2023/12/07 06:38:36;;;;;;;60.83;20.48;;;;;;;2.90;100.00;100470.84;4934998;28;20494;-80
2023/12/07 06:41:03;;;;;;;65.90;20.65;;;;;;;2.87;100.00;100468.38;4948458;28;20043;-81
2023/12/07 06:43:29;;;;;;;64.88;21.98;;;;;;;2.91;100.00;100468.16;4915219;28;20046;-80
2023/12/07 06:45:56;;;;;;;70.35;21.50;;;;;;;2.91;100.00;100478.66;4947810;28;20046;-81
2023/12/07 06:48:23;;;;;;;48.40;18.38;;;;;;;2.93;100.00;100478.59;4963003;28;20047;-81
2023/12/07 06:50:50;;;;;;;54.75;17.98;;;;;;;2.91;100.00;100476.03;4942773;28;20070;-80
2023/12/07 06:53:18;;;;;;;53.65;18.90;;;;;;;2.89;100.00;100480.50;4949833;28;20039;-81
2023/12/07 06:55:45;;;;;;;71.53;20.50;;;;;;;2.93;100.00;100484.69;4943268;28;20046;-80
2023/12/07 06:58:12;;;;;;;62.85;18.75;;;;;;;2.94;100.00;100481.13;4917389;28;20521;-81
2023/12/07 07:00:38;;;;;;;64.20;19.95;;;;;;;2.96;100.00;100483.69;4934422;28;20047;-81
2023/12/07 07:03:08;;;;;;;62.60;20.67;;;;;;;2.98;100.00;100482.72;4949515;28;20857;-80
2023/12/07 07:05:35;;;;;;;58.67;19.92;;;;;;;2.97;100.00;100491.47;4939615;28;20836;-80
2023/12/07 07:08:02;;;;;;;57.72;19.83;;;;;;;2.96;100.00;100492.41;4947855;28;20478;-80
2023/12/07 07:10:29;;;;;;;62.95;18.75;;;;;;;2.92;100.00;100490.84;4931008;28;20082;-80
2023/12/07 07:13:00;;;;;;;61.05;19.33;;;;;;;2.93;100.00;100499.59;4948170;28;20054;-80
2023/12/07 07:15:26;;;;;;;65.45;20.45;;;;;;;2.91;100.00;100490.94;4931439;28;20050;-80
2023/12/07 07:17:53;;;;;;;64.82;20.70;;;;;;;2.97;100.00;100494.09;4939625;28;20364;-80
2023/12/07 07:20:20;;;;;;;65.60;22.55;;;;;;;2.97;100.00;100490.63;4939202;28;20049;-81
2023/12/07 07:22:47;;;;;;;41.22;15.77;;;;;;;2.94;100.00;100494.25;4948361;28;20573;-80
2023/12/07 07:25:19;;;;;;;48.38;17.67;;;;;;;2.94;100.00;100496.88;4933156;28;20050;-80
2023/12/07 07:27:46;;;;;;;59.03;19.42;;;;;;;2.96;100.00;100488.94;4932924;28;20038;-80
2023/12/07 07:30:13;;;;;;;48.30;18.98;;;;;;;2.95;100.00;100488.09;4919847;28;20078;-81
2023/12/07 07:32:40;;;;;;;47.65;17.45;;;;;;;2.97;100.00;100493.25;4962126;28;20038;-80
2023/12/07 07:35:07;;;;;;;57.55;18.25;;;;;;;2.98;100.00;100484.50;4917808;28;20118;-80
2023/12/07 07:37:34;;;;;;;45.08;17.48;;;;;;;3.01;100.00;100484.34;4918369;28;20111;-81
2023/12/07 07:40:06;;;;;;;48.97;16.58;;;;;;;3.00;100.00;100491.38;4932529;28;20125;-80
2023/12/07 07:42:33;;;;;;;45.15;16.73;;;;;;;2.98;100.00;100493.22;4946700;28;20055;-81
2023/12/07 07:45:00;;;;;;;53.38;18.90;;;;;;;2.97;100.00;100501.13;4948059;28;20039;-80
2023/12/07 07:47:27;;;;;;;63.47;17.23;;;;;;;2.97;100.00;100501.97;4932758;28;20125;-80
2023/12/07 07:49:54;;;;;;;53.92;17.00;;;;;;;2.96;100.00;100515.19;4933483;28;20043;-80
2023/12/07 07:52:21;;;;;;;47.97;15.77;;;;;;;2.97;100.00;100512.47;4960536;28;20222;-81
2023/12/07 07:54:48;;;;;;;58.15;18.42;;;;;;;3.00;100.00;100524.59;4934751;28;20122;-80
2023/12/07 07:57:14;;;;;;;50.20;17.85;;;;;;;2.99;100.00;100521.13;4932843;28;20069;-80
2023/12/07 07:59:41;;;;;;;50.97;17.63;;;;;;;3.01;100.00;100524.53;4930047;28;20051;-80
2023/12/07 08:02:08;;;;;;;58.70;19.40;;;;;;;3.02;100.00;100526.22;4950220;28;20380;-81
2023/12/07 08:04:35;;;;;;;46.38;18.58;;;;;;;3.02;100.00;100525.38;4948144;28;20454;-81
2023/12/07 08:07:02;;;;;;;45.92;14.65;;;;;;;3.03;100.00;100535.81;4947659;28;20577;-81
2023/12/07 08:09:29;;;;;;;48.75;14.70;;;;;;;3.02;100.00;100526.22;4961330;28;20502;-80
2023/12/07 08:11:55;;;;;;;46.47;16.00;;;;;;;3.06;100.00;100519.09;4948575;28;20486;-81
2023/12/07 08:14:22;;;;;;;38.63;15.82;;;;;;;3.07;100.00;100528.66;4950980;28;20046;-81
2023/12/07 08:16:49;;;;;;;41.53;15.80;;;;;;;3.06;100.00;100524.34;4917785;28;20054;-82
2023/12/07 08:19:16;;;;;;;46.47;16.33;;;;;;;3.08;100.00;100525.13;4963286;28;20669;-81
2023/12/07 08:21:43;;;;;;;46.95;15.60;;;;;;;3.10;100.00;100523.25;4932066;28;20054;-83
2023/12/07 08:24:11;;;;;;;48.67;16.52;;;;;;;3.10;100.00;100527.66;4947872;28;20109;-81
2023/12/07 08:26:37;;;;;;;49.28;16.85;;;;;;;3.13;100.00;100517.88;4937134;28;20054;-81
2023/12/07 08:29:05;;;;;;;52.17;17.65;;;;;;;3.15;100.00;100515.16;4946557;28;20129;-81
2023/12/07 08:31:34;;;;;;;51.00;16.38;;;;;;;3.16;100.00;100519.50;4932431;28;20132;-81
2023/12/07 08:34:01;;;;;;;47.05;17.23;;;;;;;3.16;100.00;100516.88;4948209;28;20051;-80
2023/12/07 08:36:29;;;;;;;45.85;15.32;;;;;;;3.17;100.00;100519.41;4918531;28;20061;-80
2023/12/07 08:38:56;;;;;;;42.67;17.17;;;;;;;3.18;100.00;100508.03;4916040;28;20909;-81
2023/12/07 08:41:23;;;;;;;54.65;18.67;;;;;;;3.21;100.00;100515.75;4931842;28;20054;-81
2023/12/07 08:43:50;;;;;;;49.03;16.98;;;;;;;3.19;100.00;100506.25;4919831;28;20057;-81
2023/12/07 08:46:16;;;;;;;51.78;16.95;;;;;;;3.19;100.00;100499.22;4930664;28;20380;-81
2023/12/07 08:48:43;;;;;;;46.83;15.85;;;;;;;3.23;100.00;100508.66;4956658;28;20502;-81
2023/12/07 08:51:10;;;;;;;45.63;16.45;;;;;;;3.18;100.00;100508.03;4951318;28;20051;-81
2023/12/07 08:53:38;;;;;;;45.88;16.05;;;;;;;3.22;100.00;100506.09;4935211;28;20061;-81
2023/12/07 08:56:05;;;;;;;47.17;17.25;;;;;;;3.23;100.00;100497.28;4936722;28;20506;-80
2023/12/07 08:58:32;;;;;;;45.25;15.77;;;;;;;3.26;100.00;100490.13;4965380;28;20046;-80
2023/12/07 09:00:59;;;;;;;48.47;15.40;;;;;;;3.23;100.00;100482.41;4951243;28;20070;-80
2023/12/07 09:03:31;;;;;;;51.38;17.50;;;;;;;3.24;100.00;100481.47;4940780;28;20053;-81
2023/12/07 09:05:59;;;;;;;56.90;19.13;;;;;;;3.23;100.00;100482.41;4936585;28;20434;-81
2023/12/07 09:08:26;;;;;;;47.92;16.65;;;;;;;3.29;100.00;100480.41;4935533;28;20063;-81
2023/12/07 09:10:53;;;;;;;47.35;16.85;;;;;;;3.28;100.00;100473.44;4936705;28;20042;-81
2023/12/07 09:13:20;;;;;;;50.58;17.95;;;;;;;3.30;100.00;100475.06;4937908;28;20129;-81
2023/12/07 09:15:47;;;;;;;51.72;18.15;;;;;;;3.30;100.00;100474.22;4934896;28;20139;-81
2023/12/07 09:18:13;;;;;;;46.20;18.25;;;;;;;3.29;100.00;100473.38;4932995;28;20573;-80
2023/12/07 09:20:45;;;;;;;51.67;17.10;;;;;;;3.30;100.00;100471.59;4936770;28;20054;-81
2023/12/07 09:23:14;;;;;;;50.45;17.77;;;;;;;3.32;100.00;100477.63;4935222;28;20051;-81
2023/12/07 09:25:42;;;;;;;53.40;19.20;;;;;;;3.32;100.00;100475.84;4949329;28;20053;-81
2023/12/07 09:28:09;;;;;;;49.35;18.27;;;;;;;3.33;100.00;100477.53;4951617;28;20486;-81
2023/12/07 09:30:35;;;;;;;52.58;19.10;;;;;;;3.39;100.00;100465.91;4922942;28;20042;-81
2023/12/07 09:33:05;;;;;;;56.92;19.67;;;;;;;3.40;100.00;100463.19;4952404;28;20071;-81
2023/12/07 09:35:34;;;;;;;48.50;19.48;;;;;;;3.40;100.00;100457.09;4939630;28;20052;-80
2023/12/07 09:38:01;;;;;;;49.30;18.92;;;;;;;3.37;100.00;100459.88;4953878;28;20043;-80
2023/12/07 09:40:28;;;;;;;57.72;21.00;;;;;;;3.33;100.00;100466.19;4934435;28;20030;-81
2023/12/07 09:42:55;;;;;;;61.78;21.13;;;;;;;3.39;100.00;100461.50;4950548;28;20518;-81
2023/12/07 09:45:22;;;;;;;55.15;20.80;;;;;;;3.36;100.00;100455.53;4935129;28;20402;-80
2023/12/07 09:47:52;;;;;;;58.25;19.73;;;;;;;3.37;100.00;100452.84;4940521;28;20063;-80
2023/12/07 09:50:22;;;;;;;60.00;23.17;;;;;;;3.40;100.00;100457.94;4936766;28;20050;-80
2023/12/07 09:52:50;;;;;;;61.78;24.50;;;;;;;3.45;100.00;100455.09;4933622;28;20439;-81
2023/12/07 09:55:30;;;;;;;52.92;19.67;;;;;;;3.47;100.00;100472.47;4935613;28;20065;-80
2023/12/07 09:57:58;;;;;;;53.63;22.67;;;;;;;3.48;100.00;100465.44;4915672;28;20189;-81
2023/12/07 10:00:25;;;;;;;62.47;21.23;;;;;;;3.44;100.00;100456.03;4924821;28;20537;-81
2023/12/07 10:02:52;;;;;;;62.10;21.25;;;;;;;3.47;100.00;100459.34;4920812;28;20391;-81
2023/12/07 10:05:21;;;;;;;62.35;21.95;;;;;;;3.44;100.00;100464.75;4953260;28;20113;-80
2023/12/07 10:07:49;;;;;;;75.00;23.63;;;;;;;3.51;100.00;100467.94;4947162;28;20554;-80
2023/12/07 10:10:18;;;;;;;78.63;24.88;;;;;;;3.50;100.00;100454.88;4951617;28;20047;-81
2023/12/07 10:12:47;;;;;;;77.93;25.00;;;;;;;3.50;100.00;100450.47;4947500;28;20642;-81
2023/12/07 10:15:16;;;;;;;68.22;23.85;;;;;;;3.50;100.00;100441.75;4941020;28;20047;-81
2023/12/07 10:17:46;;;;;;;77.95;23.25;;;;;;;3.50;100.00;100445.22;4949519;28;20497;-81
2023/12/07 10:20:23;;;;;;;64.55;20.73;;;;;;;3.44;100.00;100450.78;4939078;28;20470;-81
2023/12/07 10:23:07;;;;;;;75.40;21.67;;;;;;;3.39;100.00;100451.00;4933720;28;20089;-81
2023/12/07 10:25:38;;;;;;;81.38;22.85;;;;;;;3.41;100.00;100433.41;4948245;28;20050;-81
2023/12/07 10:28:07;;;;;;;75.47;23.00;;;;;;;3.43;100.00;100434.16;4937759;28;20054;-81
2023/12/07 10:30:35;;;;;;;70.13;21.33;;;;;;;3.45;100.00;100434.09;4932629;28;20038;-81
2023/12/07 10:33:07;;;;;;;70.22;21.55;;;;;;;3.49;100.00;100438.28;4933253;28;20557;-81
2023/12/07 10:35:41;;;;;;;63.28;22.98;;;;;;;3.49;100.00;100427.78;4931085;28;20517;-80
2023/12/07 10:38:09;;;;;;;66.55;20.30;;;;;;;3.52;100.00;100427.63;4962656;28;20486;-81
2023/12/07 10:40:36;;;;;;;69.63;20.20;;;;;;;3.54;100.00;100423.16;4937803;28;20050;-81
2023/12/07 10:43:07;;;;;;;66.47;22.20;;;;;;;3.55;100.00;100422.22;4923591;28;20077;-81
2023/12/07 10:45:36;;;;;;;66.57;22.17;;;;;;;3.58;100.00;100415.97;4949337;28;20123;-81
2023/12/07 10:48:10;;;;;;;68.10;23.35;;;;;;;3.58;100.00;100408.94;4949523;28;20047;-80
2023/12/07 10:50:43;;;;;;;67.63;21.73;;;;;;;3.63;100.00;100413.94;4932992;28;20193;-82
2023/12/07 10:53:23;;;;;;;67.22;21.15;;;;;;;3.62;100.00;100409.66;4949709;28;20050;-81
2023/12/07 10:55:55;;;;;;;60.15;22.30;;;;;;;3.62;100.00;100407.00;4949223;28;20533;-81
2023/12/07 10:58:26;;;;;;;58.05;20.88;;;;;;;3.60;100.00;100401.81;4931869;28;20429;-81
2023/12/07 11:00:53;;;;;;;59.30;21.92;;;;;;;3.64;100.00;100405.16;4932927;28;20059;-81
2023/12/07 11:03:21;;;;;;;51.15;19.25;;;;;;;3.68;100.00;100396.19;4917746;28;20394;-82
2023/12/07 11:05:49;;;;;;;58.63;20.25;;;;;;;3.71;100.00;100390.78;4962289;28;20477;-81
2023/12/07 11:08:28;;;;;;;46.35;18.48;;;;;;;3.72;100.00;100389.03;4933997;28;20050;-80
2023/12/07 11:11:20;;;;;;;59.22;19.63;;;;;;;3.75;100.00;100380.97;4948437;28;20038;-81
2023/12/07 11:13:53;;;;;;;57.80;19.92;;;;;;;3.75;100.00;100376.56;4947412;28;20042;-81